sensor_id;sensor_type;location;lat;lon;timestamp;temperature;humidity
52675;DHT22;38569;52.722;6.440;2024-01-30T00:01:52;6.40;99.90
52675;DHT22;38569;52.722;6.440;2024-01-30T00:04:18;6.40;99.90
52675;DHT22;38569;52.722;6.440;2024-01-30T00:06:44;6.40;99.90
52675;DHT22;38569;52.722;6.440;2024-01-30T00:09:10;6.40;99.90
52675;DHT22;38569;52.722;6.440;2024-01-30T00:11:36;6.40;99.90
52675;DHT22;38569;52.722;6.440;2024-01-30T00:14:03;6.40;99.90
52675;DHT22;38569;52.722;6.440;2024-01-30T00:16:28;6.30;99.90
52675;DHT22;38569;52.722;6.440;2024-01-30T00:18:54;6.30;99.90
52675;DHT22;38569;52.722;6.440;2024-01-30T00:21:20;6.30;99.90
52675;DHT22;38569;52.722;6.440;2024-01-30T00:23:46;6.20;99.90
52675;DHT22;38569;52.722;6.440;2024-01-30T00:26:12;6.20;99.90
52675;DHT22;38569;52.722;6.440;2024-01-30T00:28:38;6.10;99.90
52675;DHT22;38569;52.722;6.440;2024-01-30T00:31:04;6.00;99.90
52675;DHT22;38569;52.722;6.440;2024-01-30T00:33:30;6.00;99.90
52675;DHT22;38569;52.722;6.440;2024-01-30T00:35:56;5.90;99.90
52675;DHT22;38569;52.722;6.440;2024-01-30T00:38:22;5.80;99.90
52675;DHT22;38569;52.722;6.440;2024-01-30T00:40:48;5.80;99.90
52675;DHT22;38569;52.722;6.440;2024-01-30T00:43:14;5.80;99.90
52675;DHT22;38569;52.722;6.440;2024-01-30T00:45:39;5.90;99.90
52675;DHT22;38569;52.722;6.440;2024-01-30T00:48:05;5.80;99.90
52675;DHT22;38569;52.722;6.440;2024-01-30T00:50:31;5.80;99.90
52675;DHT22;38569;52.722;6.440;2024-01-30T00:52:57;5.70;99.90
52675;DHT22;38569;52.722;6.440;2024-01-30T00:55:22;5.70;99.90
52675;DHT22;38569;52.722;6.440;2024-01-30T00:57:48;5.70;99.90
52675;DHT22;38569;52.722;6.440;2024-01-30T01:00:14;5.60;99.90
52675;DHT22;38569;52.722;6.440;2024-01-30T01:02:43;5.60;99.90
52675;DHT22;38569;52.722;6.440;2024-01-30T01:05:10;5.50;99.90
52675;DHT22;38569;52.722;6.440;2024-01-30T01:07:36;5.40;99.90
52675;DHT22;38569;52.722;6.440;2024-01-30T01:10:02;5.40;99.90
52675;DHT22;38569;52.722;6.440;2024-01-30T01:12:29;5.30;99.90
52675;DHT22;38569;52.722;6.440;2024-01-30T01:14:55;5.40;99.90
52675;DHT22;38569;52.722;6.440;2024-01-30T01:17:20;5.30;99.90
52675;DHT22;38569;52.722;6.440;2024-01-30T01:19:46;5.30;99.90
52675;DHT22;38569;52.722;6.440;2024-01-30T01:22:12;5.40;99.90
52675;DHT22;38569;52.722;6.440;2024-01-30T01:24:37;5.40;99.90
52675;DHT22;38569;52.722;6.440;2024-01-30T01:27:04;5.50;99.90
52675;DHT22;38569;52.722;6.440;2024-01-30T01:29:31;5.50;99.90
52675;DHT22;38569;52.722;6.440;2024-01-30T01:31:58;5.60;99.90
52675;DHT22;38569;52.722;6.440;2024-01-30T01:34:24;5.60;99.90
52675;DHT22;38569;52.722;6.440;2024-01-30T01:36:50;5.60;99.90
52675;DHT22;38569;52.722;6.440;2024-01-30T01:39:17;5.60;99.90
52675;DHT22;38569;52.722;6.440;2024-01-30T01:41:43;5.70;99.90
52675;DHT22;38569;52.722;6.440;2024-01-30T01:44:09;5.70;99.90
52675;DHT22;38569;52.722;6.440;2024-01-30T01:46:35;5.70;99.90
52675;DHT22;38569;52.722;6.440;2024-01-30T01:49:05;5.60;99.90
52675;DHT22;38569;52.722;6.440;2024-01-30T01:51:33;5.70;99.90
52675;DHT22;38569;52.722;6.440;2024-01-30T01:54:03;5.70;99.90
52675;DHT22;38569;52.722;6.440;2024-01-30T01:56:29;5.80;99.90
52675;DHT22;38569;52.722;6.440;2024-01-30T01:59:00;5.70;99.90
52675;DHT22;38569;52.722;6.440;2024-01-30T02:01:27;5.70;99.90
52675;DHT22;38569;52.722;6.440;2024-01-30T02:03:54;5.70;99.90
52675;DHT22;38569;52.722;6.440;2024-01-30T02:06:20;5.70;99.90
52675;DHT22;38569;52.722;6.440;2024-01-30T02:08:45;5.70;99.90
52675;DHT22;38569;52.722;6.440;2024-01-30T02:11:11;5.70;99.90
52675;DHT22;38569;52.722;6.440;2024-01-30T02:13:37;5.70;99.90
52675;DHT22;38569;52.722;6.440;2024-01-30T02:16:03;5.70;99.90
52675;DHT22;38569;52.722;6.440;2024-01-30T02:18:29;5.60;99.90
52675;DHT22;38569;52.722;6.440;2024-01-30T02:20:56;5.60;99.90
52675;DHT22;38569;52.722;6.440;2024-01-30T02:23:27;5.50;99.90
52675;DHT22;38569;52.722;6.440;2024-01-30T02:25:53;5.60;99.90
52675;DHT22;38569;52.722;6.440;2024-01-30T02:28:19;5.60;99.90
52675;DHT22;38569;52.722;6.440;2024-01-30T02:30:46;5.60;99.90
52675;DHT22;38569;52.722;6.440;2024-01-30T02:33:12;5.70;99.90
52675;DHT22;38569;52.722;6.440;2024-01-30T02:35:38;5.70;99.90
52675;DHT22;38569;52.722;6.440;2024-01-30T02:38:04;5.80;99.90
52675;DHT22;38569;52.722;6.440;2024-01-30T02:40:31;5.80;99.90
52675;DHT22;38569;52.722;6.440;2024-01-30T02:43:01;5.90;99.90
52675;DHT22;38569;52.722;6.440;2024-01-30T02:45:27;5.90;99.90
52675;DHT22;38569;52.722;6.440;2024-01-30T02:47:52;5.90;99.90
52675;DHT22;38569;52.722;6.440;2024-01-30T02:50:18;5.90;99.90
52675;DHT22;38569;52.722;6.440;2024-01-30T02:52:44;5.80;99.90
52675;DHT22;38569;52.722;6.440;2024-01-30T02:55:10;5.80;99.90
52675;DHT22;38569;52.722;6.440;2024-01-30T02:57:36;5.70;99.90
52675;DHT22;38569;52.722;6.440;2024-01-30T03:00:02;5.70;99.90
52675;DHT22;38569;52.722;6.440;2024-01-30T03:02:29;5.70;99.90
52675;DHT22;38569;52.722;6.440;2024-01-30T03:04:55;5.70;99.90
52675;DHT22;38569;52.722;6.440;2024-01-30T03:07:20;5.70;99.90
52675;DHT22;38569;52.722;6.440;2024-01-30T03:09:46;5.70;99.90
52675;DHT22;38569;52.722;6.440;2024-01-30T03:12:12;5.70;99.90
52675;DHT22;38569;52.722;6.440;2024-01-30T03:14:37;5.70;99.90
52675;DHT22;38569;52.722;6.440;2024-01-30T03:17:03;5.70;99.90
52675;DHT22;38569;52.722;6.440;2024-01-30T03:19:29;5.70;99.90
52675;DHT22;38569;52.722;6.440;2024-01-30T03:21:55;5.70;99.90
52675;DHT22;38569;52.722;6.440;2024-01-30T03:24:20;5.70;99.90
52675;DHT22;38569;52.722;6.440;2024-01-30T03:26:46;5.70;99.90
52675;DHT22;38569;52.722;6.440;2024-01-30T03:29:12;5.70;99.90
52675;DHT22;38569;52.722;6.440;2024-01-30T03:31:39;5.70;99.90
52675;DHT22;38569;52.722;6.440;2024-01-30T03:34:05;5.70;99.90
52675;DHT22;38569;52.722;6.440;2024-01-30T03:36:30;5.70;99.90
52675;DHT22;38569;52.722;6.440;2024-01-30T03:38:58;5.80;99.90
52675;DHT22;38569;52.722;6.440;2024-01-30T03:41:24;5.80;99.90
52675;DHT22;38569;52.722;6.440;2024-01-30T03:43:50;5.90;99.90
52675;DHT22;38569;52.722;6.440;2024-01-30T03:46:16;5.90;99.90
52675;DHT22;38569;52.722;6.440;2024-01-30T03:48:42;6.10;99.90
52675;DHT22;38569;52.722;6.440;2024-01-30T03:51:07;6.20;99.90
52675;DHT22;38569;52.722;6.440;2024-01-30T03:53:34;6.20;99.90
52675;DHT22;38569;52.722;6.440;2024-01-30T03:55:59;6.30;99.90
52675;DHT22;38569;52.722;6.440;2024-01-30T03:58:25;6.40;99.90
52675;DHT22;38569;52.722;6.440;2024-01-30T04:00:51;6.50;99.90
52675;DHT22;38569;52.722;6.440;2024-01-30T04:03:17;6.50;99.90
52675;DHT22;38569;52.722;6.440;2024-01-30T04:05:43;6.50;99.90
52675;DHT22;38569;52.722;6.440;2024-01-30T04:08:09;6.50;99.90
52675;DHT22;38569;52.722;6.440;2024-01-30T04:10:35;6.60;99.90
52675;DHT22;38569;52.722;6.440;2024-01-30T04:13:00;6.60;99.90
52675;DHT22;38569;52.722;6.440;2024-01-30T04:15:26;6.60;99.90
52675;DHT22;38569;52.722;6.440;2024-01-30T04:17:52;6.70;99.90
52675;DHT22;38569;52.722;6.440;2024-01-30T04:20:18;6.70;99.90
52675;DHT22;38569;52.722;6.440;2024-01-30T04:22:44;6.60;99.90
52675;DHT22;38569;52.722;6.440;2024-01-30T04:25:10;6.70;99.90
52675;DHT22;38569;52.722;6.440;2024-01-30T04:27:36;6.70;99.90
52675;DHT22;38569;52.722;6.440;2024-01-30T04:30:02;6.80;99.90
52675;DHT22;38569;52.722;6.440;2024-01-30T04:32:29;6.80;99.90
52675;DHT22;38569;52.722;6.440;2024-01-30T04:34:56;6.80;99.90
52675;DHT22;38569;52.722;6.440;2024-01-30T04:37:23;6.90;99.90
52675;DHT22;38569;52.722;6.440;2024-01-30T04:39:48;6.90;99.90
52675;DHT22;38569;52.722;6.440;2024-01-30T04:42:14;7.00;99.90
52675;DHT22;38569;52.722;6.440;2024-01-30T04:44:40;7.00;99.90
52675;DHT22;38569;52.722;6.440;2024-01-30T04:47:06;7.00;99.90
52675;DHT22;38569;52.722;6.440;2024-01-30T04:49:34;7.00;99.90
52675;DHT22;38569;52.722;6.440;2024-01-30T04:52:00;7.10;99.90
52675;DHT22;38569;52.722;6.440;2024-01-30T04:54:26;7.10;99.90
52675;DHT22;38569;52.722;6.440;2024-01-30T04:56:52;7.20;99.90
52675;DHT22;38569;52.722;6.440;2024-01-30T04:59:18;7.20;99.90
52675;DHT22;38569;52.722;6.440;2024-01-30T05:01:44;7.20;99.90
52675;DHT22;38569;52.722;6.440;2024-01-30T05:04:10;7.20;99.90
52675;DHT22;38569;52.722;6.440;2024-01-30T05:06:36;7.20;99.90
52675;DHT22;38569;52.722;6.440;2024-01-30T05:09:02;7.20;99.90
52675;DHT22;38569;52.722;6.440;2024-01-30T05:11:30;7.20;99.90
52675;DHT22;38569;52.722;6.440;2024-01-30T05:13:55;7.30;99.90
52675;DHT22;38569;52.722;6.440;2024-01-30T05:16:21;7.30;99.90
52675;DHT22;38569;52.722;6.440;2024-01-30T05:18:47;7.30;99.90
52675;DHT22;38569;52.722;6.440;2024-01-30T05:21:13;7.30;99.90
52675;DHT22;38569;52.722;6.440;2024-01-30T05:23:39;7.30;99.90
52675;DHT22;38569;52.722;6.440;2024-01-30T05:26:08;7.30;99.90
52675;DHT22;38569;52.722;6.440;2024-01-30T05:28:33;7.30;99.90
52675;DHT22;38569;52.722;6.440;2024-01-30T05:30:59;7.30;99.90
52675;DHT22;38569;52.722;6.440;2024-01-30T05:33:25;7.40;99.90
52675;DHT22;38569;52.722;6.440;2024-01-30T05:35:51;7.40;99.90
52675;DHT22;38569;52.722;6.440;2024-01-30T05:38:20;7.50;99.90
52675;DHT22;38569;52.722;6.440;2024-01-30T05:40:45;7.50;99.90
52675;DHT22;38569;52.722;6.440;2024-01-30T05:43:12;7.60;99.90
52675;DHT22;38569;52.722;6.440;2024-01-30T05:45:37;7.60;99.90
52675;DHT22;38569;52.722;6.440;2024-01-30T05:48:04;7.60;99.90
52675;DHT22;38569;52.722;6.440;2024-01-30T05:50:30;7.60;99.90
52675;DHT22;38569;52.722;6.440;2024-01-30T05:52:56;7.70;99.90
52675;DHT22;38569;52.722;6.440;2024-01-30T05:55:21;7.70;99.90
52675;DHT22;38569;52.722;6.440;2024-01-30T05:57:47;7.80;99.90
52675;DHT22;38569;52.722;6.440;2024-01-30T06:00:13;7.80;99.90
52675;DHT22;38569;52.722;6.440;2024-01-30T06:02:39;7.90;99.90
52675;DHT22;38569;52.722;6.440;2024-01-30T06:05:05;7.90;99.90
52675;DHT22;38569;52.722;6.440;2024-01-30T06:07:31;7.90;99.90
52675;DHT22;38569;52.722;6.440;2024-01-30T06:09:57;8.00;99.90
52675;DHT22;38569;52.722;6.440;2024-01-30T06:12:23;8.10;99.90
52675;DHT22;38569;52.722;6.440;2024-01-30T06:14:48;8.10;99.90
52675;DHT22;38569;52.722;6.440;2024-01-30T06:17:14;8.10;99.90
52675;DHT22;38569;52.722;6.440;2024-01-30T06:19:40;8.20;99.90
52675;DHT22;38569;52.722;6.440;2024-01-30T06:22:06;8.10;99.90
52675;DHT22;38569;52.722;6.440;2024-01-30T06:24:32;8.10;99.90
52675;DHT22;38569;52.722;6.440;2024-01-30T06:26:59;8.10;99.90
52675;DHT22;38569;52.722;6.440;2024-01-30T06:29:24;8.10;99.90
52675;DHT22;38569;52.722;6.440;2024-01-30T06:31:52;8.20;99.90
52675;DHT22;38569;52.722;6.440;2024-01-30T06:34:18;8.20;99.90
52675;DHT22;38569;52.722;6.440;2024-01-30T06:36:44;8.20;99.90
52675;DHT22;38569;52.722;6.440;2024-01-30T06:39:10;8.20;99.90
52675;DHT22;38569;52.722;6.440;2024-01-30T06:41:36;8.20;99.90
52675;DHT22;38569;52.722;6.440;2024-01-30T06:44:04;8.20;99.90
52675;DHT22;38569;52.722;6.440;2024-01-30T06:46:32;8.20;99.90
52675;DHT22;38569;52.722;6.440;2024-01-30T06:48:58;8.20;99.90
52675;DHT22;38569;52.722;6.440;2024-01-30T06:51:23;8.30;99.90
52675;DHT22;38569;52.722;6.440;2024-01-30T06:53:49;8.30;99.90
52675;DHT22;38569;52.722;6.440;2024-01-30T06:56:15;8.30;99.90
52675;DHT22;38569;52.722;6.440;2024-01-30T06:58:49;8.30;99.90
52675;DHT22;38569;52.722;6.440;2024-01-30T07:01:15;8.30;99.90
52675;DHT22;38569;52.722;6.440;2024-01-30T07:03:41;8.30;99.90
52675;DHT22;38569;52.722;6.440;2024-01-30T07:06:07;8.30;99.90
52675;DHT22;38569;52.722;6.440;2024-01-30T07:08:33;8.30;99.90
52675;DHT22;38569;52.722;6.440;2024-01-30T07:10:59;8.30;99.90
52675;DHT22;38569;52.722;6.440;2024-01-30T07:13:25;8.30;99.90
52675;DHT22;38569;52.722;6.440;2024-01-30T07:15:50;8.30;99.90
52675;DHT22;38569;52.722;6.440;2024-01-30T07:18:16;8.30;99.90
52675;DHT22;38569;52.722;6.440;2024-01-30T07:20:42;8.30;99.90
52675;DHT22;38569;52.722;6.440;2024-01-30T07:23:15;8.30;99.90
52675;DHT22;38569;52.722;6.440;2024-01-30T07:25:46;8.40;99.90
52675;DHT22;38569;52.722;6.440;2024-01-30T07:28:14;8.40;99.90
52675;DHT22;38569;52.722;6.440;2024-01-30T07:30:42;8.40;99.90
52675;DHT22;38569;52.722;6.440;2024-01-30T07:33:08;8.50;99.90
52675;DHT22;38569;52.722;6.440;2024-01-30T07:35:35;8.40;99.90
52675;DHT22;38569;52.722;6.440;2024-01-30T07:38:00;8.50;99.90
52675;DHT22;38569;52.722;6.440;2024-01-30T07:40:26;8.50;99.90
52675;DHT22;38569;52.722;6.440;2024-01-30T07:42:53;8.50;99.90
52675;DHT22;38569;52.722;6.440;2024-01-30T07:45:19;8.50;99.90
52675;DHT22;38569;52.722;6.440;2024-01-30T07:47:49;8.50;99.90
52675;DHT22;38569;52.722;6.440;2024-01-30T07:50:15;8.60;99.90
52675;DHT22;38569;52.722;6.440;2024-01-30T07:52:41;8.60;99.90
52675;DHT22;38569;52.722;6.440;2024-01-30T07:55:07;8.60;99.90
52675;DHT22;38569;52.722;6.440;2024-01-30T07:57:34;8.60;99.90
52675;DHT22;38569;52.722;6.440;2024-01-30T08:00:00;8.70;99.90
52675;DHT22;38569;52.722;6.440;2024-01-30T08:02:26;8.70;99.90
52675;DHT22;38569;52.722;6.440;2024-01-30T08:04:51;8.70;99.90
52675;DHT22;38569;52.722;6.440;2024-01-30T08:07:17;8.70;99.90
52675;DHT22;38569;52.722;6.440;2024-01-30T08:09:43;8.80;99.90
52675;DHT22;38569;52.722;6.440;2024-01-30T08:12:09;8.90;99.90
52675;DHT22;38569;52.722;6.440;2024-01-30T08:14:35;8.90;99.90
52675;DHT22;38569;52.722;6.440;2024-01-30T08:17:01;9.00;99.90
52675;DHT22;38569;52.722;6.440;2024-01-30T08:19:26;9.00;99.90
52675;DHT22;38569;52.722;6.440;2024-01-30T08:21:52;9.00;99.90
52675;DHT22;38569;52.722;6.440;2024-01-30T08:24:18;9.10;99.90
52675;DHT22;38569;52.722;6.440;2024-01-30T08:26:43;9.10;99.90
52675;DHT22;38569;52.722;6.440;2024-01-30T08:29:09;9.10;99.90
52675;DHT22;38569;52.722;6.440;2024-01-30T08:31:35;9.10;99.90
52675;DHT22;38569;52.722;6.440;2024-01-30T08:34:01;9.10;99.90
52675;DHT22;38569;52.722;6.440;2024-01-30T08:36:27;9.10;99.90
52675;DHT22;38569;52.722;6.440;2024-01-30T08:38:52;9.10;99.90
52675;DHT22;38569;52.722;6.440;2024-01-30T08:41:18;9.20;99.90
52675;DHT22;38569;52.722;6.440;2024-01-30T08:43:44;9.20;99.90
52675;DHT22;38569;52.722;6.440;2024-01-30T08:46:10;9.20;99.90
52675;DHT22;38569;52.722;6.440;2024-01-30T08:48:36;9.30;99.90
52675;DHT22;38569;52.722;6.440;2024-01-30T08:51:02;9.30;99.90
52675;DHT22;38569;52.722;6.440;2024-01-30T08:53:28;9.30;99.90
52675;DHT22;38569;52.722;6.440;2024-01-30T08:55:53;9.40;99.90
52675;DHT22;38569;52.722;6.440;2024-01-30T08:58:19;9.40;99.90
52675;DHT22;38569;52.722;6.440;2024-01-30T09:00:45;9.40;99.90
52675;DHT22;38569;52.722;6.440;2024-01-30T09:03:11;9.40;99.90
52675;DHT22;38569;52.722;6.440;2024-01-30T09:05:36;9.50;99.90
52675;DHT22;38569;52.722;6.440;2024-01-30T09:08:02;9.40;99.90
52675;DHT22;38569;52.722;6.440;2024-01-30T09:10:28;9.50;99.90
52675;DHT22;38569;52.722;6.440;2024-01-30T09:12:53;9.50;99.90
52675;DHT22;38569;52.722;6.440;2024-01-30T09:15:19;9.50;99.90
52675;DHT22;38569;52.722;6.440;2024-01-30T09:17:45;9.60;99.90
52675;DHT22;38569;52.722;6.440;2024-01-30T09:20:11;9.60;99.90
52675;DHT22;38569;52.722;6.440;2024-01-30T09:22:37;9.70;99.90
52675;DHT22;38569;52.722;6.440;2024-01-30T09:25:03;9.80;99.90
52675;DHT22;38569;52.722;6.440;2024-01-30T09:27:29;9.90;99.90
52675;DHT22;38569;52.722;6.440;2024-01-30T09:29:55;9.90;99.90
52675;DHT22;38569;52.722;6.440;2024-01-30T09:32:21;10.00;99.90
52675;DHT22;38569;52.722;6.440;2024-01-30T09:34:47;10.10;99.90
52675;DHT22;38569;52.722;6.440;2024-01-30T09:37:12;10.20;99.90
52675;DHT22;38569;52.722;6.440;2024-01-30T09:39:40;10.20;99.90
52675;DHT22;38569;52.722;6.440;2024-01-30T09:44:35;10.30;99.90
52675;DHT22;38569;52.722;6.440;2024-01-30T09:47:03;10.30;99.90
52675;DHT22;38569;52.722;6.440;2024-01-30T09:49:32;10.30;99.90
52675;DHT22;38569;52.722;6.440;2024-01-30T09:51:58;10.40;99.90
52675;DHT22;38569;52.722;6.440;2024-01-30T09:54:24;10.50;99.90
52675;DHT22;38569;52.722;6.440;2024-01-30T09:56:50;10.50;99.90
52675;DHT22;38569;52.722;6.440;2024-01-30T09:59:15;10.60;99.90
52675;DHT22;38569;52.722;6.440;2024-01-30T10:01:42;10.60;99.90
52675;DHT22;38569;52.722;6.440;2024-01-30T10:04:09;10.60;99.90
52675;DHT22;38569;52.722;6.440;2024-01-30T10:06:35;10.70;99.90
52675;DHT22;38569;52.722;6.440;2024-01-30T10:09:01;10.80;99.90
52675;DHT22;38569;52.722;6.440;2024-01-30T10:11:27;10.80;99.90
52675;DHT22;38569;52.722;6.440;2024-01-30T10:13:55;10.80;99.90
52675;DHT22;38569;52.722;6.440;2024-01-30T10:16:21;10.90;99.90
52675;DHT22;38569;52.722;6.440;2024-01-30T10:18:47;10.90;99.90
52675;DHT22;38569;52.722;6.440;2024-01-30T10:21:13;10.90;99.90
52675;DHT22;38569;52.722;6.440;2024-01-30T10:23:38;10.90;99.90
52675;DHT22;38569;52.722;6.440;2024-01-30T10:26:04;10.90;99.90
52675;DHT22;38569;52.722;6.440;2024-01-30T10:28:30;11.00;99.90
52675;DHT22;38569;52.722;6.440;2024-01-30T10:31:00;11.00;99.90
52675;DHT22;38569;52.722;6.440;2024-01-30T10:33:28;11.10;99.90
52675;DHT22;38569;52.722;6.440;2024-01-30T10:35:59;11.10;99.90
52675;DHT22;38569;52.722;6.440;2024-01-30T10:38:28;11.10;99.90
52675;DHT22;38569;52.722;6.440;2024-01-30T10:40:56;11.10;99.90
52675;DHT22;38569;52.722;6.440;2024-01-30T10:43:23;11.20;99.90
52675;DHT22;38569;52.722;6.440;2024-01-30T10:45:52;11.20;99.90
52675;DHT22;38569;52.722;6.440;2024-01-30T10:48:21;11.30;99.90
52675;DHT22;38569;52.722;6.440;2024-01-30T10:50:50;11.40;99.90
52675;DHT22;38569;52.722;6.440;2024-01-30T10:53:18;11.40;99.90
52675;DHT22;38569;52.722;6.440;2024-01-30T10:55:45;11.40;99.90
52675;DHT22;38569;52.722;6.440;2024-01-30T10:58:13;11.50;99.90
52675;DHT22;38569;52.722;6.440;2024-01-30T11:00:40;11.50;99.90
52675;DHT22;38569;52.722;6.440;2024-01-30T11:03:07;11.50;99.90
52675;DHT22;38569;52.722;6.440;2024-01-30T11:05:33;11.40;99.90
52675;DHT22;38569;52.722;6.440;2024-01-30T11:07:59;11.40;99.90
52675;DHT22;38569;52.722;6.440;2024-01-30T11:10:25;11.40;99.90
52675;DHT22;38569;52.722;6.440;2024-01-30T11:12:50;11.50;99.90
52675;DHT22;38569;52.722;6.440;2024-01-30T11:15:17;11.50;99.90
52675;DHT22;38569;52.722;6.440;2024-01-30T11:17:51;11.60;99.90
52675;DHT22;38569;52.722;6.440;2024-01-30T11:20:29;11.60;99.90
52675;DHT22;38569;52.722;6.440;2024-01-30T11:22:57;11.60;99.90
52675;DHT22;38569;52.722;6.440;2024-01-30T11:25:24;11.60;99.90
52675;DHT22;38569;52.722;6.440;2024-01-30T11:27:51;11.60;99.90
52675;DHT22;38569;52.722;6.440;2024-01-30T11:30:27;11.60;99.90
52675;DHT22;38569;52.722;6.440;2024-01-30T11:33:12;11.60;99.90
52675;DHT22;38569;52.722;6.440;2024-01-30T11:35:42;11.60;99.90
52675;DHT22;38569;52.722;6.440;2024-01-30T11:38:10;11.70;99.90
52675;DHT22;38569;52.722;6.440;2024-01-30T11:40:37;11.70;99.90
52675;DHT22;38569;52.722;6.440;2024-01-30T11:43:05;11.70;99.90
52675;DHT22;38569;52.722;6.440;2024-01-30T11:45:31;11.80;99.90
52675;DHT22;38569;52.722;6.440;2024-01-30T11:47:58;11.90;99.90
52675;DHT22;38569;52.722;6.440;2024-01-30T11:50:25;12.00;99.90
52675;DHT22;38569;52.722;6.440;2024-01-30T11:52:51;12.00;99.90
52675;DHT22;38569;52.722;6.440;2024-01-30T11:55:17;12.10;99.90
52675;DHT22;38569;52.722;6.440;2024-01-30T11:57:44;12.10;99.90
52675;DHT22;38569;52.722;6.440;2024-01-30T12:00:17;12.10;99.90
52675;DHT22;38569;52.722;6.440;2024-01-30T12:02:51;12.30;99.90
52675;DHT22;38569;52.722;6.440;2024-01-30T12:05:19;12.40;99.90
52675;DHT22;38569;52.722;6.440;2024-01-30T12:07:46;12.40;99.90
52675;DHT22;38569;52.722;6.440;2024-01-30T12:10:13;12.40;99.90
52675;DHT22;38569;52.722;6.440;2024-01-30T12:12:50;12.40;99.90
52675;DHT22;38569;52.722;6.440;2024-01-30T12:15:17;12.50;99.90
52675;DHT22;38569;52.722;6.440;2024-01-30T12:17:43;12.50;99.90
52675;DHT22;38569;52.722;6.440;2024-01-30T12:20:14;12.50;99.90
52675;DHT22;38569;52.722;6.440;2024-01-30T12:22:41;12.40;99.90
52675;DHT22;38569;52.722;6.440;2024-01-30T12:25:33;12.20;99.90
52675;DHT22;38569;52.722;6.440;2024-01-30T12:27:59;12.20;99.90
52675;DHT22;38569;52.722;6.440;2024-01-30T12:30:25;12.40;99.90
52675;DHT22;38569;52.722;6.440;2024-01-30T12:32:54;12.40;99.90
52675;DHT22;38569;52.722;6.440;2024-01-30T12:35:20;12.40;99.90
52675;DHT22;38569;52.722;6.440;2024-01-30T12:37:47;12.50;99.90
52675;DHT22;38569;52.722;6.440;2024-01-30T12:40:16;12.70;99.90
52675;DHT22;38569;52.722;6.440;2024-01-30T12:42:43;12.80;99.90
52675;DHT22;38569;52.722;6.440;2024-01-30T12:45:14;12.80;99.90
52675;DHT22;38569;52.722;6.440;2024-01-30T12:47:41;12.70;99.90
52675;DHT22;38569;52.722;6.440;2024-01-30T12:50:07;12.50;99.90
52675;DHT22;38569;52.722;6.440;2024-01-30T12:52:32;12.20;99.90
52675;DHT22;38569;52.722;6.440;2024-01-30T12:54:58;12.00;99.90
52675;DHT22;38569;52.722;6.440;2024-01-30T12:57:24;11.80;99.90
52675;DHT22;38569;52.722;6.440;2024-01-30T12:59:50;11.70;99.90
52675;DHT22;38569;52.722;6.440;2024-01-30T13:02:15;11.60;99.90
52675;DHT22;38569;52.722;6.440;2024-01-30T13:04:42;11.50;99.90
52675;DHT22;38569;52.722;6.440;2024-01-30T13:07:08;11.30;99.90
52675;DHT22;38569;52.722;6.440;2024-01-30T13:09:34;11.40;99.90
52675;DHT22;38569;52.722;6.440;2024-01-30T13:11:59;11.40;99.90
52675;DHT22;38569;52.722;6.440;2024-01-30T13:14:25;11.40;99.90
52675;DHT22;38569;52.722;6.440;2024-01-30T13:16:51;11.50;99.90
52675;DHT22;38569;52.722;6.440;2024-01-30T13:19:17;11.50;99.90
52675;DHT22;38569;52.722;6.440;2024-01-30T13:21:43;11.50;99.90
52675;DHT22;38569;52.722;6.440;2024-01-30T13:24:09;11.40;99.90
52675;DHT22;38569;52.722;6.440;2024-01-30T13:26:35;11.20;99.90
52675;DHT22;38569;52.722;6.440;2024-01-30T13:29:01;11.10;99.90
52675;DHT22;38569;52.722;6.440;2024-01-30T13:31:27;11.00;99.90
52675;DHT22;38569;52.722;6.440;2024-01-30T13:33:54;10.90;99.90
52675;DHT22;38569;52.722;6.440;2024-01-30T13:36:20;10.80;99.90
52675;DHT22;38569;52.722;6.440;2024-01-30T13:38:46;10.80;99.90
52675;DHT22;38569;52.722;6.440;2024-01-30T13:41:12;10.70;99.90
52675;DHT22;38569;52.722;6.440;2024-01-30T13:43:38;10.60;99.90
52675;DHT22;38569;52.722;6.440;2024-01-30T13:46:04;10.60;99.90
52675;DHT22;38569;52.722;6.440;2024-01-30T13:48:30;10.50;99.90
52675;DHT22;38569;52.722;6.440;2024-01-30T13:50:56;10.50;99.90
52675;DHT22;38569;52.722;6.440;2024-01-30T13:53:22;10.60;99.90
52675;DHT22;38569;52.722;6.440;2024-01-30T13:55:48;10.60;99.90
52675;DHT22;38569;52.722;6.440;2024-01-30T13:58:14;10.50;99.90
52675;DHT22;38569;52.722;6.440;2024-01-30T14:00:40;10.50;99.90
52675;DHT22;38569;52.722;6.440;2024-01-30T14:03:05;10.40;99.90
52675;DHT22;38569;52.722;6.440;2024-01-30T14:05:31;10.40;99.90
52675;DHT22;38569;52.722;6.440;2024-01-30T14:07:58;10.40;99.90
52675;DHT22;38569;52.722;6.440;2024-01-30T14:10:25;10.40;99.90
52675;DHT22;38569;52.722;6.440;2024-01-30T14:12:51;10.40;99.90
52675;DHT22;38569;52.722;6.440;2024-01-30T14:15:16;10.40;99.90
52675;DHT22;38569;52.722;6.440;2024-01-30T14:17:46;10.40;99.90
52675;DHT22;38569;52.722;6.440;2024-01-30T14:20:14;10.40;99.90
52675;DHT22;38569;52.722;6.440;2024-01-30T14:22:42;10.40;99.90
52675;DHT22;38569;52.722;6.440;2024-01-30T14:25:08;10.30;99.90
52675;DHT22;38569;52.722;6.440;2024-01-30T14:27:35;10.30;99.90
52675;DHT22;38569;52.722;6.440;2024-01-30T14:30:01;10.30;99.90
52675;DHT22;38569;52.722;6.440;2024-01-30T14:32:28;10.30;99.90
52675;DHT22;38569;52.722;6.440;2024-01-30T14:34:54;10.30;99.90
52675;DHT22;38569;52.722;6.440;2024-01-30T14:37:21;10.20;99.90
52675;DHT22;38569;52.722;6.440;2024-01-30T14:39:47;10.20;99.90
52675;DHT22;38569;52.722;6.440;2024-01-30T14:42:14;10.10;99.90
52675;DHT22;38569;52.722;6.440;2024-01-30T14:44:40;10.10;99.90
52675;DHT22;38569;52.722;6.440;2024-01-30T14:47:06;10.00;99.90
52675;DHT22;38569;52.722;6.440;2024-01-30T14:49:32;10.00;99.90
52675;DHT22;38569;52.722;6.440;2024-01-30T14:51:57;10.00;99.90
52675;DHT22;38569;52.722;6.440;2024-01-30T14:54:24;9.90;99.90
52675;DHT22;38569;52.722;6.440;2024-01-30T14:56:50;9.90;99.90
52675;DHT22;38569;52.722;6.440;2024-01-30T14:59:16;9.80;99.90
52675;DHT22;38569;52.722;6.440;2024-01-30T15:01:42;9.80;99.90
52675;DHT22;38569;52.722;6.440;2024-01-30T15:04:08;9.70;99.90
52675;DHT22;38569;52.722;6.440;2024-01-30T15:06:34;9.60;99.90
52675;DHT22;38569;52.722;6.440;2024-01-30T15:09:00;9.50;99.90
52675;DHT22;38569;52.722;6.440;2024-01-30T15:11:25;9.40;99.90
52675;DHT22;38569;52.722;6.440;2024-01-30T15:13:51;9.40;99.90
52675;DHT22;38569;52.722;6.440;2024-01-30T15:16:17;9.30;99.90
52675;DHT22;38569;52.722;6.440;2024-01-30T15:18:42;9.30;99.90
52675;DHT22;38569;52.722;6.440;2024-01-30T15:21:08;9.30;99.90
52675;DHT22;38569;52.722;6.440;2024-01-30T15:23:34;9.20;99.90
52675;DHT22;38569;52.722;6.440;2024-01-30T15:25:59;9.20;99.90
52675;DHT22;38569;52.722;6.440;2024-01-30T15:28:38;9.20;99.90
52675;DHT22;38569;52.722;6.440;2024-01-30T15:31:05;9.20;99.90
52675;DHT22;38569;52.722;6.440;2024-01-30T15:33:31;9.20;99.90
52675;DHT22;38569;52.722;6.440;2024-01-30T15:36:01;9.20;99.90
52675;DHT22;38569;52.722;6.440;2024-01-30T15:38:27;9.20;99.90